Security, Colorado
Current Conditions -  °F | °C
As of 5:54 AM on Thursday 30 Oct 2014 (Local Time) from KCOS Reporting Station
Clear Clear  
Wind Chill: 39°   Ceiling: Unl
Heat Index: 44°   Visibility: 10mi
Dew Point: 23°   Wind: 9mph
Humidity: 43%   Direction: 310°NW
Pressure: 30.35"   Gusts: NA
Location:  38.7421°N, 104.639°W
Report Text: KCOS 301154Z 31008KT 10SM CLR 07/M05 A3035 RMK AO2 SLP244 T00671050 10094 20039 53017
Loading
Personal Weather Stations






























Interactive Weather Map
Tropical Storm Tracking
New forecast layout! Learn more

10-Day Weather Forecast

Advertisements
Track Severe Weather on mobile